createdAt,value
2019-01-12T00:01:00.492Z,22.37
2019-01-12T00:03:29.780Z,23.03
2019-01-12T00:05:59.055Z,23.22
2019-01-12T00:08:28.483Z,22.30
2019-01-12T00:10:57.785Z,24.10
2019-01-12T00:13:27.064Z,22.50
2019-01-12T00:15:56.821Z,22.85
2019-01-12T00:18:26.048Z,22.27
2019-01-12T00:20:55.348Z,23.67
2019-01-12T00:23:24.568Z,23.50
2019-01-12T00:25:53.869Z,21.23
2019-01-12T00:28:23.414Z,22.87
2019-01-12T00:30:53.052Z,23.27
2019-01-12T00:33:22.668Z,19.02
2019-01-12T00:35:52.143Z,23.10
2019-01-12T00:38:21.794Z,20.70
2019-01-12T00:40:51.040Z,22.60
2019-01-12T00:43:20.274Z,20.65
2019-01-12T00:45:49.550Z,22.20
2019-01-12T00:48:18.866Z,19.90
2019-01-12T00:50:48.189Z,22.50
2019-01-12T00:53:17.372Z,20.77
2019-01-12T00:55:46.584Z,22.23
2019-01-12T00:58:15.852Z,21.37
2019-01-12T01:00:45.080Z,22.00
2019-01-12T01:03:14.801Z,20.05
2019-01-12T01:05:44.082Z,22.02
2019-01-12T01:08:13.359Z,21.52
2019-01-12T01:10:43.424Z,21.10
2019-01-12T01:13:13.060Z,20.43
2019-01-12T01:15:42.250Z,19.67
2019-01-12T01:18:11.488Z,21.33
2019-01-12T01:20:40.773Z,19.03
2019-01-12T01:23:09.939Z,22.60
2019-01-12T01:25:39.196Z,21.80
2019-01-12T01:28:08.452Z,21.40
2019-01-12T01:30:37.666Z,21.00
2019-01-12T01:33:07.641Z,20.57
2019-01-12T01:35:37.227Z,20.27
2019-01-12T01:38:06.802Z,21.23
2019-01-12T01:40:35.987Z,21.93
2019-01-12T01:43:05.447Z,19.83
2019-01-12T01:45:35.036Z,20.40
2019-01-12T01:48:04.392Z,20.67
2019-01-12T01:50:33.626Z,21.07
2019-01-12T01:53:03.143Z,23.03
2019-01-12T01:55:32.703Z,19.20
2019-01-12T01:58:01.978Z,20.00
2019-01-12T02:00:31.267Z,22.60
2019-01-12T02:03:00.847Z,21.53
2019-01-12T02:05:30.015Z,21.37
2019-01-12T02:07:59.643Z,20.43
2019-01-12T02:10:29.131Z,21.13
2019-01-12T02:12:58.342Z,21.68
2019-01-12T02:15:27.891Z,21.23
2019-01-12T02:17:57.407Z,19.80
2019-01-12T02:20:27.015Z,20.57
2019-01-12T02:22:56.225Z,21.20
2019-01-12T02:25:26.175Z,20.87
2019-01-12T02:27:55.385Z,19.80
2019-01-12T02:30:25.467Z,19.93
2019-01-12T02:32:55.227Z,18.50
2019-01-12T02:35:24.422Z,19.73
2019-01-12T02:37:53.583Z,19.30
2019-01-12T02:40:22.890Z,20.30
2019-01-12T02:42:52.093Z,18.27
2019-01-12T02:45:21.373Z,19.73
2019-01-12T02:47:50.900Z,20.97
2019-01-12T02:50:20.163Z,19.20
2019-01-12T02:52:49.340Z,19.57
2019-01-12T02:55:18.591Z,19.73
2019-01-12T02:57:47.879Z,19.07
2019-01-12T03:00:18.839Z,20.08
2019-01-12T03:02:48.082Z,20.60
2019-01-12T03:05:17.642Z,19.30
2019-01-12T03:07:46.894Z,21.50
2019-01-12T03:10:18.045Z,19.30
2019-01-12T03:12:48.071Z,19.50
2019-01-12T03:15:18.621Z,19.77
2019-01-12T03:17:47.774Z,19.00
2019-01-12T03:20:18.836Z,18.03
2019-01-12T03:22:48.087Z,20.70
2019-01-12T03:25:19.323Z,20.08
2019-01-12T03:27:48.872Z,19.60
2019-01-12T03:30:19.324Z,18.20
2019-01-12T03:32:48.595Z,18.17
2019-01-12T03:35:18.139Z,20.30
2019-01-12T03:37:47.318Z,17.65
2019-01-12T03:40:18.539Z,18.37
2019-01-12T03:42:48.613Z,19.10
2019-01-12T03:45:19.732Z,19.20
2019-01-12T03:47:49.258Z,19.07
2019-01-12T03:50:19.173Z,17.43
2019-01-12T03:52:48.379Z,20.00
2019-01-12T03:55:25.185Z,18.00
2019-01-12T03:57:48.927Z,17.73
2019-01-12T04:00:20.541Z,19.35
2019-01-12T04:02:50.139Z,17.60
2019-01-12T04:05:19.417Z,18.55
2019-01-12T04:07:48.970Z,18.83
2019-01-12T04:10:18.445Z,17.90
2019-01-12T04:12:47.563Z,17.80
2019-01-12T04:15:16.888Z,18.97
2019-01-12T04:17:47.455Z,19.37
2019-01-12T04:20:17.523Z,18.77
2019-01-12T04:22:46.755Z,18.67
2019-01-12T04:25:16.079Z,17.92
2019-01-12T04:27:45.329Z,18.00
2019-01-12T04:30:16.678Z,18.97
2019-01-12T04:32:46.303Z,18.57
2019-01-12T04:35:15.703Z,18.80
2019-01-12T04:37:44.917Z,17.60
2019-01-12T04:40:23.508Z,17.87
2019-01-12T04:42:53.028Z,18.17
2019-01-12T04:45:22.292Z,18.20
2019-01-12T04:47:51.516Z,19.07
2019-01-12T04:50:21.170Z,19.57
2019-01-12T04:52:50.332Z,19.40
2019-01-12T04:55:19.515Z,18.12
2019-01-12T04:57:48.979Z,17.67
2019-01-12T05:00:19.269Z,17.73
2019-01-12T05:02:48.608Z,17.07
2019-01-12T05:05:17.912Z,18.67
2019-01-12T05:07:47.056Z,18.00
2019-01-12T05:10:16.363Z,17.30
2019-01-12T05:12:45.599Z,19.00
2019-01-12T05:15:15.499Z,20.08
2019-01-12T05:17:44.802Z,19.10
2019-01-12T05:20:16.904Z,17.60
2019-01-12T05:22:46.187Z,16.77
2019-01-12T05:25:15.544Z,16.70
2019-01-12T05:27:44.841Z,17.70
2019-01-12T05:30:19.392Z,17.37
2019-01-12T05:32:48.683Z,16.90
2019-01-12T05:35:17.978Z,16.50
2019-01-12T05:37:47.259Z,16.73
2019-01-12T05:40:16.507Z,17.63
2019-01-12T05:42:46.067Z,15.57
2019-01-12T05:45:15.615Z,16.62
2019-01-12T05:47:45.179Z,15.80
2019-01-12T05:50:14.786Z,17.25
2019-01-12T05:52:44.103Z,15.50
2019-01-12T05:55:13.707Z,16.13
2019-01-12T05:57:42.860Z,16.47
2019-01-12T06:00:15.499Z,16.27
2019-01-12T06:02:44.755Z,14.67
2019-01-12T06:05:14.056Z,14.45
2019-01-12T06:07:43.607Z,14.53
2019-01-12T06:10:14.839Z,16.20
2019-01-12T06:12:44.219Z,13.03
2019-01-12T06:15:13.871Z,16.02
2019-01-12T06:17:42.999Z,13.23
2019-01-12T06:20:13.512Z,15.10
2019-01-12T06:22:43.036Z,13.27
2019-01-12T06:25:12.282Z,16.43
2019-01-12T06:27:41.810Z,15.93
2019-01-12T06:30:14.483Z,12.60
2019-01-12T06:32:43.989Z,13.40
2019-01-12T06:35:13.242Z,12.68
2019-01-12T06:37:42.459Z,13.60
2019-01-12T06:40:13.987Z,12.20
2019-01-12T06:42:43.524Z,13.32
2019-01-12T06:45:13.543Z,12.77
2019-01-12T06:47:42.746Z,12.17
2019-01-12T06:50:13.819Z,12.27
2019-01-12T06:52:43.512Z,12.30
2019-01-12T06:55:13.018Z,12.50
2019-01-12T06:57:42.171Z,11.78
2019-01-12T07:00:19.598Z,12.63
2019-01-12T07:02:49.645Z,11.60
2019-01-12T07:05:19.201Z,10.90
2019-01-12T07:07:48.434Z,11.25
2019-01-12T07:10:18.015Z,11.80
2019-01-12T07:12:47.324Z,11.60
2019-01-12T07:15:16.619Z,11.17
2019-01-12T07:17:46.282Z,10.13
2019-01-12T07:20:16.999Z,11.93
2019-01-12T07:22:46.501Z,11.20
2019-01-12T07:25:16.285Z,10.90
2019-01-12T07:27:45.578Z,10.53
2019-01-12T07:30:22.962Z,9.57
2019-01-12T07:32:52.299Z,10.40
2019-01-12T07:35:21.974Z,11.07
2019-01-12T07:37:52.463Z,10.37
2019-01-12T07:40:21.734Z,10.10
2019-01-12T07:42:51.200Z,11.30
2019-01-12T07:45:20.449Z,10.87
2019-01-12T07:47:49.650Z,9.50
2019-01-12T07:50:19.265Z,9.23
2019-01-12T07:52:48.910Z,8.73
2019-01-12T07:55:18.148Z,10.10
2019-01-12T07:57:47.403Z,9.00
2019-01-12T08:00:21.167Z,7.67
2019-01-12T08:02:50.594Z,8.17
2019-01-12T08:05:21.671Z,8.30
2019-01-12T08:07:50.970Z,7.63
2019-01-12T08:10:24.965Z,7.63
2019-01-12T08:12:54.384Z,8.40
2019-01-12T08:15:23.715Z,6.75
2019-01-12T08:17:53.535Z,7.70
2019-01-12T08:20:23.258Z,6.07
2019-01-12T08:22:53.599Z,6.93
2019-01-12T08:25:23.078Z,6.27
2019-01-12T08:27:52.501Z,5.15
2019-01-12T08:30:22.369Z,4.83
2019-01-12T08:32:51.932Z,5.03
2019-01-12T08:35:21.203Z,3.70
2019-01-12T08:37:50.460Z,5.27
2019-01-12T08:40:19.715Z,4.40
2019-01-12T08:42:48.980Z,4.30
2019-01-12T08:45:18.202Z,3.73
2019-01-12T08:47:47.804Z,3.80
2019-01-12T08:50:20.899Z,3.67
2019-01-12T08:52:50.133Z,3.90
2019-01-12T08:55:19.467Z,3.30
2019-01-12T08:57:48.798Z,3.35
2019-01-12T09:00:23.387Z,3.80
2019-01-12T09:02:52.931Z,3.90
2019-01-12T09:05:22.666Z,7.62
2019-01-12T09:07:52.899Z,5.87
2019-01-12T09:10:23.042Z,4.95
2019-01-12T09:12:52.826Z,4.87
2019-01-12T09:15:23.152Z,6.10
2019-01-12T09:17:52.710Z,5.17
2019-01-12T09:20:22.442Z,5.50
2019-01-12T09:22:52.301Z,5.00
2019-01-12T09:25:26.481Z,4.40
2019-01-12T09:27:55.727Z,4.43
2019-01-12T09:30:25.347Z,4.20
2019-01-12T09:32:54.963Z,4.60
2019-01-12T09:35:24.330Z,5.10
2019-01-12T09:37:57.519Z,3.60
2019-01-12T09:40:27.016Z,3.57
2019-01-12T09:42:56.208Z,4.17
2019-01-12T09:45:25.463Z,3.83
2019-01-12T09:47:54.709Z,4.40
2019-01-12T09:50:24.339Z,4.85
2019-01-12T09:52:53.871Z,4.33
2019-01-12T09:55:23.268Z,4.23
2019-01-12T09:58:03.915Z,4.13
2019-01-12T10:00:35.891Z,4.23
2019-01-12T10:03:50.260Z,4.40
2019-01-12T10:06:41.082Z,4.00
2019-01-12T10:09:10.855Z,3.80
2019-01-12T10:11:40.254Z,3.30
2019-01-12T10:14:12.023Z,3.85
2019-01-12T10:16:43.188Z,4.90
2019-01-12T10:19:13.368Z,3.83
2019-01-12T10:21:43.466Z,4.33
2019-01-12T10:24:17.331Z,4.30
2019-01-12T10:26:50.069Z,4.72
2019-01-12T10:29:23.633Z,5.15
2019-01-12T10:32:30.726Z,4.60
2019-01-12T10:35:10.352Z,5.72
2019-01-12T10:37:39.526Z,5.85
2019-01-12T10:40:09.868Z,5.57
2019-01-12T10:42:41.138Z,4.90
2019-01-12T10:45:12.659Z,5.40
2019-01-12T10:47:44.368Z,6.27
2019-01-12T10:50:17.052Z,5.50
2019-01-12T10:52:48.037Z,5.92
2019-01-12T10:55:18.702Z,5.65
2019-01-12T10:57:54.209Z,7.77
2019-01-12T11:00:27.187Z,6.97
2019-01-12T11:02:56.526Z,6.00
2019-01-12T11:05:26.797Z,6.07
2019-01-12T11:07:56.711Z,6.30
2019-01-12T11:10:34.464Z,5.93
2019-01-12T11:16:48.129Z,5.90
2019-01-12T11:19:18.356Z,6.42
2019-01-12T11:21:47.931Z,6.03
2019-01-12T11:24:21.069Z,5.97
2019-01-12T11:26:51.519Z,5.87
2019-01-12T11:29:23.741Z,6.40
2019-01-12T11:31:53.372Z,6.93
2019-01-12T11:34:23.282Z,6.97
2019-01-12T11:36:57.922Z,6.90
2019-01-12T11:39:29.546Z,7.40
2019-01-12T11:42:07.913Z,7.43
2019-01-12T11:44:40.072Z,7.60
2019-01-12T11:47:14.561Z,7.47
2019-01-12T11:49:45.895Z,7.80
2019-01-12T11:52:18.939Z,7.40
2019-01-12T11:55:20.089Z,7.30
2019-01-12T11:57:48.989Z,8.43
2019-01-12T12:00:29.447Z,7.97
2019-01-12T12:03:15.917Z,8.67
2019-01-12T12:08:52.380Z,9.70
2019-01-12T12:11:21.952Z,10.60
2019-01-12T12:13:51.162Z,10.48
2019-01-12T12:16:20.471Z,11.00
2019-01-12T12:18:49.741Z,9.77
2019-01-12T12:21:19.037Z,9.37
2019-01-12T12:23:48.381Z,10.45
2019-01-12T12:26:17.604Z,10.13
2019-01-12T12:28:46.831Z,9.90
2019-01-12T12:31:16.044Z,11.20
2019-01-12T12:33:45.251Z,12.10
2019-01-12T12:36:15.115Z,11.10
2019-01-12T12:38:45.643Z,12.10
2019-01-12T12:41:15.009Z,11.60
2019-01-12T12:43:44.586Z,12.30
2019-01-12T12:46:13.743Z,11.97
2019-01-12T12:48:43.145Z,11.97
2019-01-12T12:51:12.415Z,13.43
2019-01-12T12:53:41.668Z,12.13
2019-01-12T12:56:10.991Z,12.33
2019-01-12T12:58:40.395Z,13.00
2019-01-12T13:01:10.008Z,14.17
2019-01-12T13:03:41.849Z,12.67
2019-01-12T13:06:11.164Z,12.60
2019-01-12T13:09:05.631Z,14.43
2019-01-12T13:11:37.879Z,14.63
2019-01-12T13:14:07.866Z,13.70
2019-01-12T13:16:37.172Z,12.70
2019-01-12T13:19:07.437Z,12.37
2019-01-12T13:21:44.923Z,13.50
2019-01-12T13:24:14.325Z,15.37
2019-01-12T13:26:44.077Z,13.33
2019-01-12T13:29:13.370Z,14.15
2019-01-12T13:31:42.764Z,15.40
2019-01-12T13:34:12.013Z,15.07
2019-01-12T13:36:41.353Z,15.17
2019-01-12T13:39:15.125Z,15.83
2019-01-12T13:41:45.107Z,13.50
2019-01-12T13:44:14.495Z,14.40
2019-01-12T13:46:43.845Z,15.17
2019-01-12T13:49:13.291Z,15.00
2019-01-12T13:51:51.416Z,14.43
2019-01-12T13:54:20.762Z,15.20
2019-01-12T13:56:50.537Z,15.37
2019-01-12T13:59:20.010Z,13.50
2019-01-12T14:04:44.916Z,13.80
2019-01-12T14:07:14.234Z,15.43
2019-01-12T14:09:43.459Z,14.23
2019-01-12T14:12:12.791Z,13.53
2019-01-12T14:14:42.063Z,13.07
2019-01-12T14:17:11.294Z,14.30
2019-01-12T14:19:40.552Z,14.03
2019-01-12T14:22:09.788Z,15.07
2019-01-12T14:24:47.432Z,13.93
2019-01-12T14:27:43.682Z,13.93
2019-01-12T14:30:15.692Z,13.47
2019-01-12T14:32:45.229Z,14.20
2019-01-12T14:35:15.078Z,13.30
2019-01-12T14:37:44.545Z,14.83
2019-01-12T14:40:15.959Z,14.00
2019-01-12T14:42:56.639Z,14.77
2019-01-12T14:45:33.703Z,11.60
2019-01-12T14:48:06.998Z,14.50
2019-01-12T14:50:39.768Z,13.60
2019-01-12T14:53:28.016Z,13.50
2019-01-12T14:55:57.501Z,13.10
2019-01-12T15:01:28.270Z,14.20
2019-01-12T15:04:09.071Z,13.20
2019-01-12T15:06:54.594Z,13.72
2019-01-12T15:09:23.875Z,13.90
2019-01-12T15:11:53.204Z,15.07
2019-01-12T15:14:22.676Z,14.37
2019-01-12T15:16:52.353Z,14.80
2019-01-12T15:19:29.028Z,14.63
2019-01-12T15:21:58.734Z,13.18
2019-01-12T15:24:30.799Z,15.27
2019-01-12T15:26:59.985Z,17.57
2019-01-12T15:29:29.308Z,15.53
2019-01-12T15:31:59.259Z,14.47
2019-01-12T15:34:28.990Z,15.47
2019-01-12T15:36:58.493Z,12.05
2019-01-12T15:39:28.133Z,14.07
2019-01-12T15:42:00.528Z,13.65
2019-01-12T15:44:29.880Z,12.60
2019-01-12T15:47:01.158Z,15.17
2019-01-12T15:50:23.051Z,14.30
2019-01-12T15:52:53.411Z,14.10
2019-01-12T15:55:23.207Z,15.13
2019-01-12T16:01:13.126Z,15.13
2019-01-12T16:03:44.218Z,14.87
2019-01-12T16:06:22.958Z,14.98
2019-01-12T16:08:52.320Z,14.58
2019-01-12T16:11:22.664Z,17.53
2019-01-12T16:13:52.388Z,15.60
2019-01-12T16:16:24.656Z,15.33
2019-01-12T16:18:57.684Z,17.77
2019-01-12T16:21:27.655Z,15.80
2019-01-12T16:24:01.232Z,16.33
2019-01-12T16:26:35.558Z,17.20
2019-01-12T16:29:05.461Z,16.30
2019-01-12T16:31:34.775Z,17.37
2019-01-12T16:34:04.070Z,15.53
2019-01-12T16:36:33.629Z,16.35
2019-01-12T16:39:03.932Z,16.37
2019-01-12T16:41:33.394Z,17.07
2019-01-12T16:44:02.612Z,17.90
2019-01-12T16:46:31.981Z,18.77
2019-01-12T16:49:01.346Z,17.83
2019-01-12T16:51:30.557Z,16.77
2019-01-12T16:53:59.818Z,16.27
2019-01-12T16:56:29.060Z,18.40
2019-01-12T16:58:58.487Z,15.38
2019-01-12T17:01:27.755Z,15.30
2019-01-12T17:03:56.980Z,17.50
2019-01-12T17:06:26.236Z,15.60
2019-01-12T17:08:55.577Z,14.85
2019-01-12T17:11:24.912Z,15.03
2019-01-12T17:13:54.799Z,16.20
2019-01-12T17:16:24.083Z,14.83
2019-01-12T17:18:53.462Z,16.10
2019-01-12T17:21:22.791Z,14.93
2019-01-12T17:23:52.318Z,14.05
2019-01-12T17:26:24.743Z,13.43
2019-01-12T17:28:54.315Z,13.87
2019-01-12T17:31:23.932Z,14.30
2019-01-12T17:33:53.427Z,14.30
2019-01-12T17:36:22.770Z,13.57
2019-01-12T17:38:52.514Z,12.87
2019-01-12T17:41:21.873Z,12.97
2019-01-12T17:43:51.192Z,13.07
2019-01-12T17:46:20.390Z,13.80
2019-01-12T17:48:49.605Z,11.63
2019-01-12T17:51:19.007Z,12.17
2019-01-12T17:53:48.273Z,12.80
2019-01-12T17:56:17.650Z,11.60
2019-01-12T17:58:46.907Z,11.43
2019-01-12T18:01:16.984Z,10.40
2019-01-12T18:04:35.212Z,10.58
2019-01-12T18:07:04.887Z,10.27
2019-01-12T18:09:34.506Z,10.93
2019-01-12T18:12:04.445Z,10.20
2019-01-12T18:14:33.635Z,9.87
2019-01-12T18:17:04.588Z,8.90
2019-01-12T18:19:45.485Z,9.43
2019-01-12T18:22:15.601Z,9.23
2019-01-12T18:24:56.138Z,10.17
2019-01-12T18:27:25.402Z,9.30
2019-01-12T18:29:55.244Z,10.10
2019-01-12T18:32:24.503Z,9.63
2019-01-12T18:35:01.261Z,10.10
2019-01-12T18:37:30.785Z,10.97
2019-01-12T18:40:00.124Z,10.40
2019-01-12T18:42:29.467Z,10.40
2019-01-12T18:44:59.270Z,9.30
2019-01-12T18:47:29.065Z,9.80
2019-01-12T18:49:58.242Z,9.00
2019-01-12T18:52:27.595Z,8.83
2019-01-12T18:54:56.783Z,8.77
2019-01-12T18:57:25.967Z,8.13
2019-01-12T18:59:55.536Z,9.15
2019-01-12T19:02:24.807Z,8.30
2019-01-12T19:04:54.074Z,8.37
2019-01-12T19:07:23.575Z,7.97
2019-01-12T19:09:53.156Z,8.90
2019-01-12T19:12:22.501Z,9.23
2019-01-12T19:14:52.143Z,9.37
2019-01-12T19:17:21.374Z,9.03
2019-01-12T19:19:50.768Z,8.47
2019-01-12T19:22:19.936Z,8.93
2019-01-12T19:24:49.295Z,8.50
2019-01-12T19:27:18.542Z,8.68
2019-01-12T19:29:50.637Z,8.70
2019-01-12T19:32:20.622Z,8.37
2019-01-12T19:34:50.257Z,8.80
2019-01-12T19:37:19.800Z,8.97
2019-01-12T19:39:49.387Z,8.77
2019-01-12T19:42:18.661Z,8.90
2019-01-12T19:44:48.125Z,9.03
2019-01-12T19:47:17.934Z,8.88
2019-01-12T19:49:47.134Z,7.23
2019-01-12T19:52:16.344Z,9.87
2019-01-12T19:54:45.562Z,9.33
2019-01-12T19:57:14.792Z,8.73
2019-01-12T19:59:44.147Z,8.33
2019-01-12T20:02:13.801Z,9.80
2019-01-12T20:04:43.668Z,7.50
2019-01-12T20:07:12.967Z,8.37
2019-01-12T20:09:42.301Z,8.75
2019-01-12T20:12:11.626Z,7.80
2019-01-12T20:14:41.049Z,7.63
2019-01-12T20:17:11.127Z,9.53
2019-01-12T20:19:40.737Z,9.18
2019-01-12T20:22:10.363Z,8.10
2019-01-12T20:24:39.867Z,8.38
2019-01-12T20:27:09.152Z,8.05
2019-01-12T20:29:38.618Z,8.70
2019-01-12T20:33:07.433Z,9.10
2019-01-12T20:36:10.920Z,9.07
2019-01-12T20:38:59.380Z,7.60
2019-01-12T20:42:01.770Z,9.00
2019-01-12T20:45:27.737Z,9.60
2019-01-12T20:48:34.870Z,9.20
2019-01-12T20:51:59.045Z,10.13
2019-01-12T20:54:44.845Z,9.43
2019-01-12T20:58:05.266Z,10.30
2019-01-12T21:01:15.902Z,9.33
2019-01-12T21:04:04.881Z,9.43
2019-01-12T21:07:08.316Z,9.40
2019-01-12T21:10:15.321Z,10.80
2019-01-12T21:13:27.745Z,10.73
2019-01-12T21:16:02.561Z,11.50
2019-01-12T21:18:32.246Z,11.90
2019-01-12T21:21:01.507Z,11.40
2019-01-12T21:23:30.833Z,10.70
2019-01-12T21:26:00.092Z,9.53
2019-01-12T21:28:29.379Z,9.47
2019-01-12T21:30:59.007Z,10.07
2019-01-12T21:33:36.044Z,8.70
2019-01-12T21:36:07.872Z,9.73
2019-01-12T21:38:37.320Z,8.57
2019-01-12T21:41:06.863Z,8.20
2019-01-12T21:43:38.731Z,8.60
2019-01-12T21:46:28.347Z,9.63
2019-01-12T21:49:42.781Z,9.53
2019-01-12T21:52:12.283Z,8.60
2019-01-12T21:54:44.180Z,7.60
2019-01-12T21:57:25.102Z,7.35
2019-01-12T21:59:57.776Z,6.75
2019-01-12T22:02:32.223Z,5.90
2019-01-12T22:05:06.287Z,6.90
2019-01-12T22:07:49.788Z,6.40
2019-01-12T22:10:22.132Z,6.40
2019-01-12T22:12:54.437Z,5.90
2019-01-12T22:15:48.844Z,4.87
2019-01-12T22:18:26.825Z,5.50
2019-01-12T22:21:13.397Z,5.93
2019-01-12T22:24:04.919Z,5.30
2019-01-12T22:26:38.867Z,5.92
2019-01-12T22:29:49.993Z,5.53
2019-01-12T22:32:23.743Z,4.97
2019-01-12T22:34:53.336Z,4.12
2019-01-12T22:37:36.199Z,4.33
2019-01-12T22:40:37.503Z,4.03
2019-01-12T22:43:29.438Z,3.90
2019-01-12T22:46:10.288Z,3.50
2019-01-12T22:49:02.510Z,3.33
2019-01-12T22:52:05.394Z,4.03
2019-01-12T22:54:59.652Z,3.60
2019-01-12T22:57:53.420Z,3.50
2019-01-12T23:00:54.189Z,3.20
2019-01-12T23:03:23.821Z,2.93
2019-01-12T23:06:08.461Z,2.80
2019-01-12T23:08:37.863Z,2.80
2019-01-12T23:11:11.916Z,2.70
2019-01-12T23:13:47.148Z,2.52
2019-01-12T23:16:18.153Z,2.60
2019-01-12T23:18:50.257Z,2.65
2019-01-12T23:21:29.188Z,2.40
2019-01-12T23:24:17.210Z,2.90
2019-01-12T23:26:46.808Z,2.75
2019-01-12T23:29:16.079Z,2.60
2019-01-12T23:31:45.374Z,2.83
2019-01-12T23:34:14.656Z,3.23
2019-01-12T23:36:43.910Z,3.43
2019-01-12T23:39:13.672Z,3.03
2019-01-12T23:41:43.010Z,4.07
2019-01-12T23:44:15.012Z,3.98
2019-01-12T23:46:43.532Z,4.00
2019-01-12T23:49:12.817Z,3.60
2019-01-12T23:51:42.115Z,3.70
2019-01-12T23:54:11.428Z,4.00
2019-01-12T23:56:41.031Z,3.77
2019-01-12T23:59:10.233Z,3.60
